createdAt,value
2023-02-11T00:27:34.725Z,2.60
2023-02-11T00:36:57.311Z,2.60
2023-02-11T00:38:30.336Z,2.80
2023-02-11T00:40:06.640Z,2.70
2023-02-11T00:41:39.874Z,2.70
2023-02-11T00:43:11.944Z,2.70
2023-02-11T00:44:45.061Z,2.80
2023-02-11T00:46:18.477Z,2.80
2023-02-11T00:47:51.526Z,2.90
2023-02-11T00:49:23.656Z,2.90
2023-02-11T00:50:56.674Z,2.80
2023-02-11T00:52:30.714Z,2.80
2023-02-11T00:54:03.998Z,2.70
2023-02-11T00:55:37.051Z,2.80
2023-02-11T00:57:10.111Z,2.80
2023-02-11T00:58:43.201Z,2.90
2023-02-11T01:00:17.386Z,2.90
2023-02-11T01:01:50.208Z,3.00
2023-02-11T01:03:23.547Z,2.90
2023-02-11T01:04:56.730Z,3.00
2023-02-11T01:06:29.794Z,3.00
2023-02-11T01:08:03.309Z,3.10
2023-02-11T01:09:39.171Z,3.10
2023-02-11T01:11:15.995Z,3.10
2023-02-11T01:12:50.573Z,3.20
2023-02-11T01:14:23.915Z,3.20
2023-02-11T01:15:58.569Z,3.20
2023-02-11T01:17:31.758Z,3.20
2023-02-11T01:19:04.911Z,3.20
2023-02-11T01:20:37.126Z,3.30
2023-02-11T01:22:10.362Z,3.40
2023-02-11T01:23:44.840Z,3.50
2023-02-11T01:25:18.307Z,3.50
2023-02-11T01:26:50.401Z,3.30
2023-02-11T01:28:26.073Z,3.40
2023-02-11T01:29:59.504Z,3.30
2023-02-11T01:31:32.829Z,3.20
2023-02-11T01:33:07.008Z,3.30
2023-02-11T01:34:40.172Z,3.40
2023-02-11T01:36:12.790Z,3.30
2023-02-11T01:37:45.896Z,3.30
2023-02-11T01:39:20.516Z,3.20
2023-02-11T01:40:55.767Z,3.20
2023-02-11T01:42:28.884Z,3.30
2023-02-11T01:44:27.015Z,3.30
2023-02-11T01:46:06.136Z,3.20
2023-02-11T01:47:39.188Z,3.10
2023-02-11T01:49:15.894Z,3.00
2023-02-11T01:50:53.021Z,3.00
2023-02-11T01:52:31.009Z,2.90
2023-02-11T01:54:22.934Z,2.80
2023-02-11T01:56:18.156Z,2.70
2023-02-11T01:57:56.372Z,2.70
2023-02-11T01:59:32.259Z,2.70
2023-02-11T02:01:08.015Z,2.50
2023-02-11T02:02:47.529Z,2.60
2023-02-11T02:04:21.120Z,2.70
2023-02-11T02:05:59.513Z,2.60
2023-02-11T02:07:40.590Z,2.70
2023-02-11T02:09:20.765Z,2.70
2023-02-11T02:10:56.602Z,2.80
2023-02-11T02:12:30.251Z,2.80
2023-02-11T02:14:03.463Z,2.80
2023-02-11T02:15:38.836Z,3.10
2023-02-11T02:17:23.306Z,3.10
2023-02-11T02:19:06.525Z,3.10
2023-02-11T02:21:18.297Z,3.20
2023-02-11T02:23:29.718Z,3.00
2023-02-11T02:25:20.167Z,3.00
2023-02-11T02:27:19.944Z,3.10
2023-02-11T02:29:25.927Z,3.20
2023-02-11T02:31:22.617Z,3.30
2023-02-11T02:33:26.312Z,3.40
2023-02-11T02:35:09.971Z,3.40
2023-02-11T03:31:19.686Z,4.60
2023-02-11T03:32:56.199Z,4.70
2023-02-11T03:34:34.522Z,4.80
2023-02-11T03:36:12.027Z,4.70
2023-02-11T03:37:51.952Z,4.70
2023-02-11T03:39:30.804Z,4.80
2023-02-11T03:41:06.922Z,4.80
2023-02-11T03:42:44.506Z,4.90
2023-02-11T03:44:19.581Z,4.90
2023-02-11T03:45:54.480Z,4.90
2023-02-11T03:47:30.755Z,4.80
2023-02-11T03:49:06.424Z,4.80
2023-02-11T03:50:40.837Z,4.90
2023-02-11T03:52:16.853Z,4.90
2023-02-11T03:53:54.770Z,5.00
2023-02-11T03:55:29.589Z,5.00
2023-02-11T03:57:03.771Z,4.90
2023-02-11T03:58:36.889Z,5.00
2023-02-11T04:00:11.701Z,5.00
2023-02-11T04:01:45.382Z,5.00
2023-02-11T04:03:19.094Z,5.10
2023-02-11T04:04:52.471Z,5.10
2023-02-11T04:06:25.545Z,5.10
2023-02-11T04:07:57.634Z,5.10
2023-02-11T04:09:32.048Z,5.10
2023-02-11T04:11:05.228Z,5.10
2023-02-11T04:12:37.304Z,5.10
2023-02-11T04:14:10.450Z,5.10
2023-02-11T04:15:43.504Z,5.10
2023-02-11T04:17:16.756Z,5.10
2023-02-11T04:18:49.880Z,5.20
2023-02-11T04:20:23.088Z,5.10
2023-02-11T04:21:55.149Z,5.10
2023-02-11T04:23:28.292Z,5.20
2023-02-11T04:25:01.894Z,5.20
2023-02-11T04:26:34.960Z,5.10
2023-02-11T04:28:07.052Z,5.10
2023-02-11T04:29:40.330Z,5.20
2023-02-11T04:31:13.522Z,5.10
2023-02-11T04:32:46.699Z,5.10
2023-02-11T04:34:19.797Z,5.10
2023-02-11T04:35:53.034Z,5.10
2023-02-11T04:37:26.262Z,5.10
2023-02-11T04:38:59.302Z,5.10
2023-02-11T04:40:32.727Z,5.10
2023-02-11T04:42:06.421Z,5.20
2023-02-11T04:43:39.504Z,5.20
2023-02-11T04:45:12.744Z,5.20
2023-02-11T04:46:45.901Z,5.20
2023-02-11T04:48:18.991Z,5.20
2023-02-11T04:49:52.021Z,5.10
2023-02-11T04:51:25.194Z,5.10
2023-02-11T04:52:58.277Z,5.20
2023-02-11T04:54:31.429Z,5.20
2023-02-11T04:56:06.429Z,5.20
2023-02-11T04:57:39.605Z,5.20
2023-02-11T04:59:13.251Z,5.20
2023-02-11T05:00:46.785Z,5.20
2023-02-11T05:02:19.953Z,5.20
2023-02-11T05:03:52.252Z,5.20
2023-02-11T05:05:25.363Z,5.10
2023-02-11T05:06:58.711Z,5.10
2023-02-11T05:08:31.955Z,5.10
2023-02-11T05:10:05.668Z,5.10
2023-02-11T05:11:40.668Z,5.00
2023-02-11T05:13:13.714Z,5.00
2023-02-11T05:14:45.810Z,5.00
2023-02-11T05:16:19.352Z,4.90
2023-02-11T05:17:51.512Z,4.80
2023-02-11T05:19:24.574Z,4.80
2023-02-11T05:20:56.729Z,4.70
2023-02-11T05:22:29.768Z,4.70
2023-02-11T05:24:02.847Z,4.60
2023-02-11T05:25:35.952Z,4.70
2023-02-11T05:27:10.608Z,4.70
2023-02-11T05:28:44.079Z,4.70
2023-02-11T05:30:17.194Z,4.70
2023-02-11T05:31:49.273Z,4.70
2023-02-11T05:33:22.486Z,4.70
2023-02-11T05:34:55.740Z,4.70
2023-02-11T05:36:28.806Z,4.60
2023-02-11T05:38:02.015Z,4.60
2023-02-11T05:39:35.105Z,4.60
2023-02-11T05:41:07.587Z,4.50
2023-02-11T05:42:42.042Z,4.50
2023-02-11T05:44:15.117Z,4.40
2023-02-11T05:47:22.214Z,4.30
2023-02-11T05:48:56.591Z,4.40
2023-02-11T05:50:29.727Z,4.30
2023-02-11T05:52:02.937Z,4.30
2023-02-11T05:53:36.191Z,4.30
2023-02-11T05:55:09.552Z,4.30
2023-02-11T05:56:44.731Z,4.30
2023-02-11T05:58:19.386Z,4.30
2023-02-11T05:59:52.493Z,4.30
2023-02-11T06:01:25.670Z,4.30
2023-02-11T06:02:58.887Z,4.20
2023-02-11T06:04:32.069Z,4.20
2023-02-11T06:06:05.746Z,4.20
2023-02-11T06:07:38.825Z,4.20
2023-02-11T06:09:12.359Z,4.20
2023-02-11T06:10:46.263Z,4.20
2023-02-11T06:12:19.371Z,4.20
2023-02-11T06:13:53.889Z,4.20
2023-02-11T06:15:26.936Z,4.20
2023-02-11T06:16:59.061Z,4.10
2023-02-11T06:18:33.511Z,4.20
2023-02-11T06:20:10.086Z,4.10
2023-02-11T06:21:44.496Z,4.10
2023-02-11T06:23:17.764Z,4.10
2023-02-11T06:25:01.276Z,4.10
2023-02-11T06:26:35.084Z,4.20
2023-02-11T06:28:08.574Z,4.10
2023-02-11T06:29:43.063Z,4.10
2023-02-11T06:31:16.936Z,4.10
2023-02-11T06:32:51.075Z,4.20
2023-02-11T06:34:24.256Z,4.20
2023-02-11T06:35:57.483Z,4.20
2023-02-11T06:37:30.587Z,4.20
2023-02-11T06:39:03.810Z,4.20
2023-02-11T06:40:37.022Z,4.20
2023-02-11T06:42:10.959Z,4.20
2023-02-11T06:43:44.684Z,4.20
2023-02-11T06:45:20.588Z,4.20
2023-02-11T06:46:53.684Z,4.30
2023-02-11T06:48:26.809Z,4.20
2023-02-11T06:49:59.904Z,4.20
2023-02-11T06:51:32.976Z,4.20
2023-02-11T06:53:06.076Z,4.30
2023-02-11T06:54:39.199Z,4.40
2023-02-11T06:56:13.605Z,4.30
2023-02-11T06:57:46.640Z,4.40
2023-02-11T06:59:20.984Z,4.40
2023-02-11T07:00:55.410Z,4.40
2023-02-11T07:02:28.541Z,4.50
2023-02-11T07:04:01.794Z,4.50
2023-02-11T07:05:35.230Z,4.50
2023-02-11T07:07:08.383Z,4.40
2023-02-11T07:08:42.502Z,4.50
2023-02-11T07:10:15.608Z,4.50
2023-02-11T07:11:48.728Z,4.60
2023-02-11T07:13:21.790Z,4.60
2023-02-11T07:14:54.931Z,4.60
2023-02-11T07:16:29.710Z,4.60
2023-02-11T07:18:02.933Z,4.60
2023-02-11T07:19:36.104Z,4.60
2023-02-11T07:21:10.766Z,4.60
2023-02-11T07:22:43.890Z,4.50
2023-02-11T07:24:17.202Z,4.60
2023-02-11T07:25:50.501Z,4.50
2023-02-11T07:27:23.761Z,4.50
2023-02-11T07:28:56.903Z,4.50
2023-02-11T07:30:29.970Z,4.50
2023-02-11T07:32:04.446Z,4.50
2023-02-11T07:33:38.012Z,4.50
2023-02-11T07:35:11.137Z,4.50
2023-02-11T07:36:45.096Z,4.50
2023-02-11T07:38:18.137Z,4.50
2023-02-11T07:39:51.259Z,4.50
2023-02-11T07:41:26.005Z,4.60
2023-02-11T07:42:59.163Z,4.60
2023-02-11T07:44:33.210Z,4.60
2023-02-11T07:46:07.436Z,4.60
2023-02-11T07:47:42.858Z,4.70
2023-02-11T07:49:16.362Z,4.70
2023-02-11T07:50:49.453Z,4.80
2023-02-11T07:52:22.635Z,4.80
2023-02-11T07:53:56.358Z,4.80
2023-02-11T07:55:29.465Z,4.80
2023-02-11T07:57:02.535Z,4.80
2023-02-11T07:58:36.207Z,4.90
2023-02-11T08:00:10.326Z,4.80
2023-02-11T08:01:46.055Z,4.80
2023-02-11T08:03:20.501Z,4.90
2023-02-11T08:04:53.608Z,4.90
2023-02-11T08:06:28.455Z,4.90
2023-02-11T08:08:01.708Z,4.80
2023-02-11T08:09:34.856Z,4.90
2023-02-11T08:11:08.852Z,4.80
2023-02-11T08:12:41.929Z,4.90
2023-02-11T08:14:15.204Z,5.00
2023-02-11T08:15:48.472Z,5.00
2023-02-11T08:17:22.122Z,5.00
2023-02-11T08:18:59.224Z,5.00
2023-02-11T08:20:32.382Z,5.00
2023-02-11T08:22:05.853Z,5.10
2023-02-11T08:23:39.848Z,5.10
2023-02-11T08:25:12.907Z,5.10
2023-02-11T08:26:46.017Z,5.10
2023-02-11T08:28:19.103Z,5.20
2023-02-11T08:29:52.285Z,5.30
2023-02-11T08:31:27.271Z,5.20
2023-02-11T08:33:00.510Z,5.30
2023-02-11T08:34:34.946Z,5.30
2023-02-11T08:36:10.481Z,5.30
2023-02-11T08:37:43.599Z,5.20
2023-02-11T08:39:20.447Z,5.30
2023-02-11T08:40:53.941Z,5.30
2023-02-11T08:42:27.299Z,5.30
2023-02-11T08:44:00.378Z,5.10
2023-02-11T08:45:33.495Z,5.10
2023-02-11T08:47:06.759Z,5.10
2023-02-11T08:50:15.532Z,5.10
2023-02-11T08:53:22.511Z,5.00
2023-02-11T08:54:55.685Z,5.10
2023-02-11T08:56:30.828Z,5.00
2023-02-11T08:58:04.095Z,5.10
2023-02-11T08:59:37.156Z,5.20
2023-02-11T09:01:10.639Z,5.20
2023-02-11T09:02:43.738Z,5.30
2023-02-11T09:04:16.968Z,5.30
2023-02-11T09:05:53.230Z,5.30
2023-02-11T09:07:26.337Z,5.30
2023-02-11T09:08:59.734Z,5.30
2023-02-11T09:10:32.840Z,5.30
2023-02-11T09:12:06.645Z,5.30
2023-02-11T09:13:41.624Z,5.20
2023-02-11T09:15:14.701Z,5.20
2023-02-11T09:16:48.755Z,5.30
2023-02-11T09:18:22.006Z,5.30
2023-02-11T09:19:55.106Z,5.30
2023-02-11T09:21:30.233Z,5.30
2023-02-11T09:23:03.305Z,5.40
2023-02-11T09:24:36.437Z,5.40
2023-02-11T09:26:10.657Z,5.40
2023-02-11T09:29:17.306Z,5.30
2023-02-11T09:32:24.517Z,5.40
2023-02-11T09:34:00.566Z,5.60
2023-02-11T09:35:34.567Z,5.60
2023-02-11T09:37:09.561Z,5.60
2023-02-11T09:38:42.782Z,5.60
2023-02-11T09:42:27.228Z,5.40
2023-02-11T09:44:04.574Z,5.40
2023-02-11T09:45:37.844Z,5.50
2023-02-11T09:47:25.453Z,5.50
2023-02-11T09:48:59.003Z,5.50
2023-02-11T09:50:35.414Z,5.50
2023-02-11T09:52:20.929Z,5.50
2023-02-11T09:54:04.460Z,5.50
2023-02-11T09:55:43.068Z,5.60
2023-02-11T09:57:28.236Z,5.60
2023-02-11T09:59:01.818Z,5.60
2023-02-11T10:00:41.065Z,5.80
2023-02-11T10:02:21.351Z,5.90
2023-02-11T10:04:07.822Z,5.90
2023-02-11T10:05:51.618Z,5.90
2023-02-11T10:07:38.000Z,5.80
2023-02-11T10:09:38.108Z,5.70
2023-02-11T10:11:30.995Z,5.60
2023-02-11T10:13:21.030Z,5.60
2023-02-11T10:15:21.641Z,5.60
2023-02-11T10:17:05.368Z,5.70
2023-02-11T10:19:13.864Z,5.70
2023-02-11T10:20:55.562Z,5.80
2023-02-11T10:22:33.011Z,5.80
2023-02-11T10:24:13.019Z,5.90
2023-02-11T10:25:49.562Z,5.90
2023-02-11T10:27:28.653Z,5.90
2023-02-11T10:29:06.565Z,6.00
2023-02-11T10:30:44.683Z,6.00
2023-02-11T10:32:28.854Z,6.00
2023-02-11T10:34:06.417Z,6.10
2023-02-11T10:35:39.676Z,6.00
2023-02-11T10:37:14.718Z,6.10
2023-02-11T10:38:49.178Z,6.10
2023-02-11T10:40:24.920Z,6.10
2023-02-11T10:42:02.645Z,6.10
2023-02-11T10:43:36.201Z,6.10
2023-02-11T10:45:17.788Z,6.10
2023-02-11T10:46:52.091Z,6.10
2023-02-11T11:05:18.897Z,6.10
2023-02-11T11:06:52.039Z,6.30
2023-02-11T11:08:40.519Z,6.50
2023-02-11T11:10:31.694Z,6.50
2023-02-11T11:12:04.915Z,6.50
2023-02-11T11:13:39.645Z,6.50
2023-02-11T11:15:19.898Z,6.60
2023-02-11T11:16:54.569Z,6.60
2023-02-11T11:18:27.637Z,6.60
2023-02-11T11:20:21.942Z,6.50
2023-02-11T11:25:05.810Z,6.40
2023-02-11T11:26:46.233Z,6.50
2023-02-11T11:28:25.218Z,6.60
2023-02-11T11:29:58.860Z,6.70
2023-02-11T11:39:58.868Z,6.60
2023-02-11T11:41:34.218Z,6.70
2023-02-11T11:43:23.070Z,6.60
2023-02-11T11:45:01.016Z,6.50
2023-02-11T11:46:37.216Z,6.50
2023-02-11T11:57:49.092Z,6.50
2023-02-11T12:01:07.705Z,6.60
2023-02-11T12:03:18.633Z,6.70
2023-02-11T12:05:02.903Z,6.80
2023-02-11T12:08:21.187Z,6.70
2023-02-11T12:10:19.244Z,6.70
2023-02-11T12:12:15.486Z,6.80
2023-02-11T12:14:02.688Z,6.70
2023-02-11T12:15:43.717Z,6.80
2023-02-11T12:17:34.471Z,6.80
2023-02-11T12:19:40.871Z,6.80
2023-02-11T12:21:26.105Z,6.90
2023-02-11T12:23:12.376Z,6.90
2023-02-11T12:26:34.746Z,6.80
2023-02-11T12:28:27.012Z,6.90
2023-02-11T12:30:08.199Z,6.90
2023-02-11T12:31:59.787Z,6.90
2023-02-11T12:33:56.655Z,6.90
2023-02-11T12:35:38.415Z,6.90
2023-02-11T12:44:18.084Z,6.60
2023-02-11T12:49:27.877Z,6.60
2023-02-11T12:51:11.369Z,6.70
2023-02-11T12:53:08.718Z,6.70
2023-02-11T12:54:47.267Z,6.70
2023-02-11T13:01:20.931Z,6.40
2023-02-11T13:03:03.141Z,6.50
2023-02-11T13:04:41.447Z,6.50
2023-02-11T13:06:18.460Z,6.60
2023-02-11T13:07:54.500Z,6.60
2023-02-11T13:09:31.704Z,6.60
2023-02-11T13:11:14.244Z,6.50
2023-02-11T13:13:07.450Z,6.50
2023-02-11T13:14:42.190Z,6.50
2023-02-11T13:16:21.922Z,6.60
2023-02-11T13:21:26.690Z,6.40
2023-02-11T13:24:45.223Z,6.50
2023-02-11T13:28:01.690Z,6.50
2023-02-11T13:29:47.435Z,6.60
2023-02-11T14:01:42.807Z,6.40
2023-02-11T14:03:50.331Z,6.50
2023-02-11T14:05:47.166Z,6.60
2023-02-11T14:07:46.709Z,6.40
2023-02-11T15:06:19.349Z,6.60
2023-02-11T15:07:56.057Z,6.70
2023-02-11T15:09:35.114Z,6.70
2023-02-11T15:11:13.393Z,6.70
2023-02-11T15:12:49.840Z,6.70
2023-02-11T15:14:25.583Z,6.80
2023-02-11T15:16:03.416Z,6.70
2023-02-11T15:17:37.220Z,6.80
2023-02-11T15:19:22.787Z,6.80
2023-02-11T15:20:56.084Z,6.80
2023-02-11T15:22:33.410Z,6.80
2023-02-11T15:24:24.458Z,6.80
2023-02-11T15:25:57.880Z,6.80
2023-02-11T15:27:39.752Z,6.70
2023-02-11T15:29:17.668Z,6.80
2023-02-11T15:30:59.499Z,6.80
2023-02-11T15:32:33.330Z,6.80
2023-02-11T15:34:10.372Z,6.80
2023-02-11T15:35:44.412Z,6.80
2023-02-11T15:37:22.284Z,6.80
2023-02-11T15:39:19.902Z,6.80
2023-02-11T15:40:56.446Z,6.70
2023-02-11T15:42:38.096Z,6.80
2023-02-11T15:44:31.548Z,6.70
2023-02-11T15:46:05.147Z,6.70
2023-02-11T15:47:38.633Z,6.70
2023-02-11T15:49:19.150Z,6.70
2023-02-11T15:50:55.784Z,6.80
2023-02-11T15:52:30.036Z,6.80
2023-02-11T15:54:05.009Z,6.70
2023-02-11T15:55:42.627Z,6.70
2023-02-11T15:57:16.407Z,6.70
2023-02-11T15:58:51.075Z,6.80
2023-02-11T16:00:27.145Z,6.70
2023-02-11T16:02:08.313Z,6.80
2023-02-11T16:03:43.221Z,6.80
2023-02-11T16:05:29.845Z,6.70
2023-02-11T16:07:03.198Z,6.70
2023-02-11T16:08:37.597Z,6.70
2023-02-11T16:10:26.696Z,6.70
2023-02-11T16:12:03.722Z,6.70
2023-02-11T16:13:47.622Z,6.70
2023-02-11T16:15:40.339Z,6.60
2023-02-11T16:17:23.420Z,6.60
2023-02-11T16:19:04.840Z,6.60
2023-02-11T16:20:38.339Z,6.50
2023-02-11T16:22:16.371Z,6.50
2023-02-11T16:23:55.532Z,6.50
2023-02-11T16:25:28.683Z,6.40
2023-02-11T16:27:05.685Z,6.40
2023-02-11T16:28:39.253Z,6.40
2023-02-11T16:30:28.543Z,6.40
2023-02-11T16:32:09.836Z,6.40
2023-02-11T16:33:43.139Z,6.30
2023-02-11T16:35:16.209Z,6.30
2023-02-11T16:36:50.046Z,6.30
2023-02-11T16:38:23.912Z,6.40
2023-02-11T16:39:58.220Z,6.40
2023-02-11T16:41:31.311Z,6.30
2023-02-11T16:43:05.925Z,6.30
2023-02-11T16:44:39.366Z,6.30
2023-02-11T16:46:16.210Z,6.20
2023-02-11T16:47:49.559Z,6.20
2023-02-11T16:49:25.252Z,6.20
2023-02-11T16:50:58.781Z,6.10
2023-02-11T16:52:32.557Z,6.10
2023-02-11T16:54:06.048Z,6.10
2023-02-11T16:55:39.095Z,6.00
2023-02-11T16:57:16.138Z,6.00
2023-02-11T16:58:50.552Z,6.00
2023-02-11T17:00:24.672Z,6.00
2023-02-11T17:01:59.217Z,6.00
2023-02-11T17:03:37.478Z,5.90
2023-02-11T17:05:23.027Z,5.90
2023-02-11T17:08:31.950Z,6.10
2023-02-11T17:10:07.253Z,5.90
2023-02-11T17:11:40.333Z,6.00
2023-02-11T17:13:13.397Z,6.00
2023-02-11T17:14:47.865Z,6.10
2023-02-11T17:16:22.762Z,6.00
2023-02-11T17:17:55.845Z,6.10
2023-02-11T17:19:29.337Z,6.00
2023-02-11T17:21:02.384Z,6.10
2023-02-11T17:22:35.560Z,6.00
2023-02-11T17:24:09.098Z,6.00
2023-02-11T17:25:42.132Z,6.00
2023-02-11T17:27:15.366Z,6.00
2023-02-11T17:28:48.607Z,6.00
2023-02-11T17:30:23.980Z,6.00
2023-02-11T17:31:57.164Z,6.00
2023-02-11T17:33:30.262Z,6.00
2023-02-11T17:35:03.335Z,6.00
2023-02-11T17:36:36.632Z,6.00
2023-02-11T17:38:09.682Z,6.10
2023-02-11T17:39:42.834Z,6.10
2023-02-11T17:41:15.951Z,6.10
2023-02-11T17:42:49.057Z,6.20
2023-02-11T17:44:22.145Z,6.10
2023-02-11T17:45:56.631Z,6.10
2023-02-11T17:47:30.701Z,6.20
2023-02-11T17:49:04.937Z,6.20
2023-02-11T17:50:38.253Z,6.30
2023-02-11T17:52:11.466Z,6.30
2023-02-11T17:53:44.539Z,6.30
2023-02-11T17:55:17.785Z,6.30
2023-02-11T17:56:51.053Z,6.30
2023-02-11T17:58:24.476Z,6.30
2023-02-11T17:59:57.562Z,6.30
2023-02-11T18:01:34.320Z,6.40
2023-02-11T18:03:07.371Z,6.40
2023-02-11T18:04:40.936Z,6.40
2023-02-11T18:06:14.076Z,6.40
2023-02-11T18:14:02.677Z,6.40
2023-02-11T18:15:35.798Z,6.40
2023-02-11T18:17:10.556Z,6.30
2023-02-11T18:18:44.169Z,6.30
2023-02-11T18:20:17.450Z,6.30
2023-02-11T18:21:50.989Z,6.30
2023-02-11T18:23:24.039Z,6.30
2023-02-11T18:24:57.139Z,6.20
2023-02-11T18:26:30.298Z,6.20
2023-02-11T18:28:03.609Z,6.20
2023-02-11T18:29:36.953Z,6.20
2023-02-11T18:35:52.693Z,6.20
2023-02-11T18:37:26.007Z,6.10
2023-02-11T18:40:33.771Z,6.00
2023-02-11T18:43:40.742Z,5.50
2023-02-11T18:46:48.738Z,5.50
2023-02-11T19:08:49.313Z,5.90
2023-02-11T19:10:22.418Z,6.00
2023-02-11T19:11:57.161Z,5.90
2023-02-11T19:13:30.780Z,5.80
2023-02-11T19:15:04.164Z,5.90
2023-02-11T19:16:37.386Z,5.90
2023-02-11T19:18:10.565Z,5.90
2023-02-11T19:19:44.995Z,5.90
2023-02-11T19:21:18.074Z,5.80
2023-02-11T19:22:51.317Z,5.80
2023-02-11T19:24:25.386Z,5.80
2023-02-11T19:25:58.437Z,5.80
2023-02-11T19:27:31.594Z,5.80
2023-02-11T19:29:05.634Z,5.80
2023-02-11T19:30:38.733Z,5.80
2023-02-11T19:32:11.961Z,5.70
2023-02-11T19:33:45.075Z,5.80
2023-02-11T19:35:19.947Z,5.80
2023-02-11T19:36:54.150Z,5.80
2023-02-11T19:38:28.138Z,5.80
2023-02-11T19:40:01.269Z,5.80
2023-02-11T19:41:35.270Z,5.80
2023-02-11T19:43:08.325Z,5.80
2023-02-11T19:44:41.627Z,5.80
2023-02-11T19:46:14.852Z,5.80
2023-02-11T19:47:47.895Z,5.80
2023-02-11T19:49:25.804Z,5.80
2023-02-11T19:51:07.631Z,5.80
2023-02-11T19:52:41.189Z,5.80
2023-02-11T19:54:14.667Z,5.80
2023-02-11T19:55:47.697Z,5.80
2023-02-11T19:57:20.891Z,5.70
2023-02-11T19:58:53.944Z,5.80
2023-02-11T20:00:27.117Z,5.70
2023-02-11T21:20:25.267Z,5.50
2023-02-11T21:36:10.833Z,5.70
2023-02-11T21:40:52.143Z,5.60
2023-02-11T22:02:47.258Z,5.80
2023-02-11T22:04:21.705Z,5.90
2023-02-11T22:05:55.286Z,6.00
2023-02-11T22:07:28.551Z,5.90
2023-02-11T22:09:06.951Z,5.90
2023-02-11T22:10:40.023Z,5.90
2023-02-11T22:12:14.454Z,6.00
2023-02-11T22:13:47.958Z,6.00
2023-02-11T22:15:21.126Z,6.00
2023-02-11T22:16:54.204Z,6.00
2023-02-11T22:18:27.747Z,5.90
2023-02-11T22:20:00.788Z,5.90
2023-02-11T22:21:33.953Z,5.90
2023-02-11T22:23:07.002Z,6.00
2023-02-11T22:24:41.652Z,6.00
2023-02-11T22:26:17.336Z,6.00
2023-02-11T22:27:51.782Z,6.00
2023-02-11T22:29:24.819Z,6.00
2023-02-11T22:30:58.746Z,6.00
2023-02-11T22:32:31.982Z,6.10
2023-02-11T22:34:05.930Z,6.10
2023-02-11T22:35:39.061Z,6.10
2023-02-11T22:37:12.318Z,6.10
2023-02-11T22:38:45.456Z,6.10
2023-02-11T22:40:18.668Z,6.20
2023-02-11T22:41:51.893Z,6.00
2023-02-11T22:43:26.342Z,6.00
2023-02-11T22:44:59.387Z,6.00
2023-02-11T22:46:32.493Z,6.00
2023-02-11T22:48:06.566Z,6.00
2023-02-11T22:49:41.335Z,6.10
2023-02-11T22:51:16.009Z,6.10
2023-02-11T22:52:49.086Z,6.00
2023-02-11T22:54:22.760Z,6.00
2023-02-11T22:55:57.324Z,6.00
2023-02-11T22:57:30.720Z,6.00
2023-02-11T22:59:07.479Z,6.10
2023-02-11T23:00:42.608Z,6.20
2023-02-11T23:02:15.763Z,6.20
2023-02-11T23:03:49.423Z,6.10
2023-02-11T23:05:22.487Z,6.10
2023-02-11T23:06:55.871Z,6.20
2023-02-11T23:08:30.618Z,6.10
2023-02-11T23:10:03.709Z,6.20
2023-02-11T23:11:37.021Z,6.20
2023-02-11T23:13:11.084Z,6.20
2023-02-11T23:14:45.512Z,6.20
2023-02-11T23:16:20.191Z,6.20
2023-02-11T23:17:53.251Z,6.20
2023-02-11T23:19:26.319Z,6.20
2023-02-11T23:21:04.988Z,6.20
2023-02-11T23:22:38.046Z,6.20
2023-02-11T23:24:16.396Z,6.10
2023-02-11T23:25:48.461Z,6.20
2023-02-11T23:27:21.585Z,6.10
2023-02-11T23:28:55.263Z,6.20
2023-02-11T23:30:30.173Z,6.10
2023-02-11T23:32:03.252Z,6.30
2023-02-11T23:33:35.365Z,6.20
2023-02-11T23:35:08.819Z,6.20
2023-02-11T23:36:41.889Z,6.10
2023-02-11T23:38:15.067Z,6.20
2023-02-11T23:39:48.126Z,6.20
2023-02-11T23:41:21.971Z,6.30
2023-02-11T23:42:55.008Z,6.10
2023-02-11T23:44:28.669Z,6.20
2023-02-11T23:46:03.240Z,6.20
2023-02-11T23:47:36.450Z,6.30
2023-02-11T23:49:09.820Z,6.30
2023-02-11T23:50:44.620Z,6.30
2023-02-11T23:52:17.741Z,6.30
2023-02-11T23:53:54.147Z,6.30
2023-02-11T23:55:27.276Z,6.20
2023-02-11T23:57:00.381Z,6.20
2023-02-11T23:58:32.450Z,6.10
